sensor_id;sensor_type;location;lat;lon;timestamp;P1;durP1;ratioP1;P2;durP2;ratioP2
78197;SDS011;67472;51.554;7.812;2024-03-22T00:01:53;47.17;;;26.88;;
78197;SDS011;67472;51.554;7.812;2024-03-22T00:04:43;51.20;;;26.27;;
78197;SDS011;67472;51.554;7.812;2024-03-22T00:07:29;46.83;;;25.23;;
78197;SDS011;67472;51.554;7.812;2024-03-22T00:10:16;44.15;;;25.20;;
78197;SDS011;67472;51.554;7.812;2024-03-22T00:13:03;43.58;;;24.88;;
78197;SDS011;67472;51.554;7.812;2024-03-22T00:15:48;46.95;;;25.42;;
78197;SDS011;67472;51.554;7.812;2024-03-22T00:18:34;42.78;;;23.35;;
78197;SDS011;67472;51.554;7.812;2024-03-22T00:21:21;41.72;;;24.35;;
78197;SDS011;67472;51.554;7.812;2024-03-22T00:24:07;47.58;;;24.83;;
78197;SDS011;67472;51.554;7.812;2024-03-22T00:26:53;46.97;;;25.45;;
78197;SDS011;67472;51.554;7.812;2024-03-22T00:29:39;45.97;;;24.23;;
78197;SDS011;67472;51.554;7.812;2024-03-22T00:32:24;46.63;;;25.20;;
78197;SDS011;67472;51.554;7.812;2024-03-22T00:35:10;42.55;;;22.52;;
78197;SDS011;67472;51.554;7.812;2024-03-22T00:38:00;46.22;;;24.63;;
78197;SDS011;67472;51.554;7.812;2024-03-22T00:40:47;43.40;;;24.08;;
78197;SDS011;67472;51.554;7.812;2024-03-22T00:43:33;45.72;;;23.05;;
78197;SDS011;67472;51.554;7.812;2024-03-22T00:46:22;41.25;;;23.30;;
78197;SDS011;67472;51.554;7.812;2024-03-22T00:49:13;42.50;;;22.75;;
78197;SDS011;67472;51.554;7.812;2024-03-22T00:51:59;39.53;;;22.48;;
78197;SDS011;67472;51.554;7.812;2024-03-22T00:54:52;39.80;;;21.70;;
78197;SDS011;67472;51.554;7.812;2024-03-22T00:57:42;41.83;;;22.45;;
78197;SDS011;67472;51.554;7.812;2024-03-22T01:00:32;43.08;;;22.30;;
78197;SDS011;67472;51.554;7.812;2024-03-22T01:03:25;42.70;;;22.35;;
78197;SDS011;67472;51.554;7.812;2024-03-22T01:06:14;40.03;;;22.33;;
78197;SDS011;67472;51.554;7.812;2024-03-22T01:09:08;38.60;;;22.15;;
78197;SDS011;67472;51.554;7.812;2024-03-22T01:11:56;42.25;;;22.52;;
78197;SDS011;67472;51.554;7.812;2024-03-22T01:14:41;39.80;;;21.48;;
78197;SDS011;67472;51.554;7.812;2024-03-22T01:17:27;38.38;;;21.58;;
78197;SDS011;67472;51.554;7.812;2024-03-22T01:20:13;40.08;;;21.55;;
78197;SDS011;67472;51.554;7.812;2024-03-22T01:22:59;41.53;;;21.98;;
78197;SDS011;67472;51.554;7.812;2024-03-22T01:25:45;42.83;;;21.50;;
78197;SDS011;67472;51.554;7.812;2024-03-22T01:28:35;36.40;;;20.65;;
78197;SDS011;67472;51.554;7.812;2024-03-22T01:31:21;39.10;;;21.45;;
78197;SDS011;67472;51.554;7.812;2024-03-22T01:34:11;37.33;;;20.83;;
78197;SDS011;67472;51.554;7.812;2024-03-22T01:37:05;39.00;;;20.73;;
78197;SDS011;67472;51.554;7.812;2024-03-22T01:40:01;42.30;;;21.20;;
78197;SDS011;67472;51.554;7.812;2024-03-22T01:42:47;39.65;;;22.05;;
78197;SDS011;67472;51.554;7.812;2024-03-22T01:45:40;36.97;;;21.00;;
78197;SDS011;67472;51.554;7.812;2024-03-22T01:48:33;37.70;;;21.02;;
78197;SDS011;67472;51.554;7.812;2024-03-22T01:51:19;39.10;;;20.92;;
78197;SDS011;67472;51.554;7.812;2024-03-22T01:54:05;36.28;;;21.60;;
78197;SDS011;67472;51.554;7.812;2024-03-22T01:57:01;35.60;;;20.23;;
78197;SDS011;67472;51.554;7.812;2024-03-22T01:59:53;37.60;;;21.23;;
78197;SDS011;67472;51.554;7.812;2024-03-22T02:02:45;38.15;;;19.52;;
78197;SDS011;67472;51.554;7.812;2024-03-22T02:05:32;35.05;;;19.73;;
78197;SDS011;67472;51.554;7.812;2024-03-22T02:08:23;38.03;;;20.52;;
78197;SDS011;67472;51.554;7.812;2024-03-22T02:11:08;38.72;;;19.55;;
78197;SDS011;67472;51.554;7.812;2024-03-22T02:13:55;36.17;;;20.20;;
78197;SDS011;67472;51.554;7.812;2024-03-22T02:16:44;34.75;;;18.38;;
78197;SDS011;67472;51.554;7.812;2024-03-22T02:19:34;37.17;;;19.75;;
78197;SDS011;67472;51.554;7.812;2024-03-22T02:22:20;35.70;;;20.00;;
78197;SDS011;67472;51.554;7.812;2024-03-22T02:25:10;37.40;;;19.88;;
78197;SDS011;67472;51.554;7.812;2024-03-22T02:27:57;37.25;;;19.25;;
78197;SDS011;67472;51.554;7.812;2024-03-22T02:30:43;36.70;;;20.30;;
78197;SDS011;67472;51.554;7.812;2024-03-22T02:33:41;37.67;;;18.88;;
78197;SDS011;67472;51.554;7.812;2024-03-22T02:36:29;35.10;;;19.42;;
78197;SDS011;67472;51.554;7.812;2024-03-22T02:39:24;39.28;;;18.83;;
78197;SDS011;67472;51.554;7.812;2024-03-22T02:42:19;37.45;;;20.00;;
78197;SDS011;67472;51.554;7.812;2024-03-22T02:45:08;39.20;;;19.02;;
78197;SDS011;67472;51.554;7.812;2024-03-22T02:48:01;37.30;;;18.73;;
78197;SDS011;67472;51.554;7.812;2024-03-22T02:50:54;36.70;;;19.42;;
78197;SDS011;67472;51.554;7.812;2024-03-22T02:53:40;35.80;;;19.17;;
78197;SDS011;67472;51.554;7.812;2024-03-22T02:56:33;34.50;;;18.63;;
78197;SDS011;67472;51.554;7.812;2024-03-22T02:59:21;34.58;;;17.80;;
78197;SDS011;67472;51.554;7.812;2024-03-22T03:02:07;39.00;;;18.70;;
78197;SDS011;67472;51.554;7.812;2024-03-22T03:04:56;28.77;;;17.70;;
78197;SDS011;67472;51.554;7.812;2024-03-22T03:07:43;31.10;;;16.27;;
78197;SDS011;67472;51.554;7.812;2024-03-22T03:10:29;33.95;;;17.63;;
78197;SDS011;67472;51.554;7.812;2024-03-22T03:13:16;35.42;;;18.50;;
78197;SDS011;67472;51.554;7.812;2024-03-22T03:16:12;32.97;;;17.15;;
78197;SDS011;67472;51.554;7.812;2024-03-22T03:18:57;36.25;;;18.48;;
78197;SDS011;67472;51.554;7.812;2024-03-22T03:21:44;34.05;;;18.27;;
78197;SDS011;67472;51.554;7.812;2024-03-22T03:24:29;33.42;;;17.85;;
78197;SDS011;67472;51.554;7.812;2024-03-22T03:27:18;33.22;;;19.13;;
78197;SDS011;67472;51.554;7.812;2024-03-22T03:30:07;33.55;;;18.08;;
78197;SDS011;67472;51.554;7.812;2024-03-22T03:32:56;33.08;;;16.98;;
78197;SDS011;67472;51.554;7.812;2024-03-22T03:35:45;34.40;;;17.80;;
78197;SDS011;67472;51.554;7.812;2024-03-22T03:38:31;35.72;;;18.13;;
78197;SDS011;67472;51.554;7.812;2024-03-22T03:41:17;36.88;;;19.27;;
78197;SDS011;67472;51.554;7.812;2024-03-22T03:44:10;32.95;;;17.70;;
78197;SDS011;67472;51.554;7.812;2024-03-22T03:46:59;31.63;;;17.10;;
78197;SDS011;67472;51.554;7.812;2024-03-22T03:49:47;31.48;;;17.75;;
78197;SDS011;67472;51.554;7.812;2024-03-22T03:52:33;30.27;;;17.35;;
78197;SDS011;67472;51.554;7.812;2024-03-22T03:55:19;31.38;;;17.95;;
78197;SDS011;67472;51.554;7.812;2024-03-22T03:58:09;31.20;;;17.35;;
78197;SDS011;67472;51.554;7.812;2024-03-22T04:00:54;33.75;;;18.27;;
78197;SDS011;67472;51.554;7.812;2024-03-22T04:03:48;33.15;;;18.10;;
78197;SDS011;67472;51.554;7.812;2024-03-22T04:06:39;31.73;;;17.63;;
78197;SDS011;67472;51.554;7.812;2024-03-22T04:09:37;32.95;;;17.50;;
78197;SDS011;67472;51.554;7.812;2024-03-22T04:12:44;29.10;;;16.13;;
78197;SDS011;67472;51.554;7.812;2024-03-22T04:15:34;29.67;;;17.35;;
78197;SDS011;67472;51.554;7.812;2024-03-22T04:18:23;31.98;;;17.45;;
78197;SDS011;67472;51.554;7.812;2024-03-22T04:21:20;32.47;;;18.63;;
78197;SDS011;67472;51.554;7.812;2024-03-22T04:24:10;27.23;;;16.08;;
78197;SDS011;67472;51.554;7.812;2024-03-22T04:26:57;33.05;;;17.83;;
78197;SDS011;67472;51.554;7.812;2024-03-22T04:29:49;29.38;;;17.13;;
78197;SDS011;67472;51.554;7.812;2024-03-22T04:32:39;30.05;;;16.77;;
78197;SDS011;67472;51.554;7.812;2024-03-22T04:35:27;28.63;;;17.60;;
78197;SDS011;67472;51.554;7.812;2024-03-22T04:38:15;32.33;;;17.23;;
78197;SDS011;67472;51.554;7.812;2024-03-22T04:41:06;30.17;;;16.83;;
78197;SDS011;67472;51.554;7.812;2024-03-22T04:43:55;30.25;;;18.10;;
78197;SDS011;67472;51.554;7.812;2024-03-22T04:46:41;31.45;;;18.35;;
78197;SDS011;67472;51.554;7.812;2024-03-22T04:49:30;30.75;;;18.05;;
78197;SDS011;67472;51.554;7.812;2024-03-22T04:52:20;34.78;;;17.67;;
78197;SDS011;67472;51.554;7.812;2024-03-22T04:55:08;30.08;;;18.33;;
78197;SDS011;67472;51.554;7.812;2024-03-22T04:58:01;28.83;;;16.42;;
78197;SDS011;67472;51.554;7.812;2024-03-22T05:01:04;30.08;;;16.85;;
78197;SDS011;67472;51.554;7.812;2024-03-22T05:03:57;31.08;;;16.85;;
78197;SDS011;67472;51.554;7.812;2024-03-22T05:06:43;30.45;;;16.23;;
78197;SDS011;67472;51.554;7.812;2024-03-22T05:09:34;26.98;;;16.30;;
78197;SDS011;67472;51.554;7.812;2024-03-22T05:12:25;26.23;;;15.85;;
78197;SDS011;67472;51.554;7.812;2024-03-22T05:15:14;29.77;;;16.20;;
78197;SDS011;67472;51.554;7.812;2024-03-22T05:18:04;29.25;;;17.38;;
78197;SDS011;67472;51.554;7.812;2024-03-22T05:20:58;31.58;;;16.55;;
78197;SDS011;67472;51.554;7.812;2024-03-22T05:23:43;27.15;;;15.50;;
78197;SDS011;67472;51.554;7.812;2024-03-22T05:26:33;28.98;;;16.08;;
78197;SDS011;67472;51.554;7.812;2024-03-22T05:29:28;28.55;;;16.10;;
78197;SDS011;67472;51.554;7.812;2024-03-22T05:32:15;29.55;;;16.52;;
78197;SDS011;67472;51.554;7.812;2024-03-22T05:35:01;24.80;;;16.10;;
78197;SDS011;67472;51.554;7.812;2024-03-22T05:37:55;28.00;;;15.90;;
78197;SDS011;67472;51.554;7.812;2024-03-22T05:40:43;31.13;;;16.17;;
78197;SDS011;67472;51.554;7.812;2024-03-22T05:43:36;27.35;;;15.57;;
78197;SDS011;67472;51.554;7.812;2024-03-22T05:46:51;28.45;;;16.58;;
78197;SDS011;67472;51.554;7.812;2024-03-22T05:49:40;27.88;;;15.40;;
78197;SDS011;67472;51.554;7.812;2024-03-22T05:52:26;26.08;;;15.93;;
78197;SDS011;67472;51.554;7.812;2024-03-22T05:55:12;28.20;;;15.40;;
78197;SDS011;67472;51.554;7.812;2024-03-22T05:58:08;28.25;;;15.55;;
78197;SDS011;67472;51.554;7.812;2024-03-22T06:01:04;21.33;;;14.32;;
78197;SDS011;67472;51.554;7.812;2024-03-22T06:03:51;23.00;;;14.70;;
78197;SDS011;67472;51.554;7.812;2024-03-22T06:06:44;27.60;;;15.20;;
78197;SDS011;67472;51.554;7.812;2024-03-22T06:09:35;27.20;;;14.63;;
78197;SDS011;67472;51.554;7.812;2024-03-22T06:12:34;21.02;;;13.20;;
78197;SDS011;67472;51.554;7.812;2024-03-22T06:15:24;25.02;;;14.05;;
78197;SDS011;67472;51.554;7.812;2024-03-22T06:18:11;24.60;;;14.45;;
78197;SDS011;67472;51.554;7.812;2024-03-22T06:21:03;22.30;;;13.77;;
78197;SDS011;67472;51.554;7.812;2024-03-22T06:23:51;24.23;;;14.30;;
78197;SDS011;67472;51.554;7.812;2024-03-22T06:26:37;19.08;;;12.75;;
78197;SDS011;67472;51.554;7.812;2024-03-22T06:29:23;22.15;;;12.30;;
78197;SDS011;67472;51.554;7.812;2024-03-22T06:32:10;25.65;;;13.20;;
78197;SDS011;67472;51.554;7.812;2024-03-22T06:34:55;19.48;;;12.75;;
78197;SDS011;67472;51.554;7.812;2024-03-22T06:37:42;20.05;;;12.68;;
78197;SDS011;67472;51.554;7.812;2024-03-22T06:40:28;19.60;;;13.23;;
78197;SDS011;67472;51.554;7.812;2024-03-22T06:43:14;21.30;;;12.77;;
78197;SDS011;67472;51.554;7.812;2024-03-22T06:45:59;21.23;;;12.35;;
78197;SDS011;67472;51.554;7.812;2024-03-22T06:48:46;17.70;;;11.65;;
78197;SDS011;67472;51.554;7.812;2024-03-22T06:51:31;18.00;;;11.10;;
78197;SDS011;67472;51.554;7.812;2024-03-22T06:54:17;18.13;;;11.20;;
78197;SDS011;67472;51.554;7.812;2024-03-22T06:57:03;15.05;;;10.68;;
78197;SDS011;67472;51.554;7.812;2024-03-22T06:59:50;17.20;;;11.05;;
78197;SDS011;67472;51.554;7.812;2024-03-22T07:02:35;15.93;;;9.93;;
78197;SDS011;67472;51.554;7.812;2024-03-22T07:05:21;15.23;;;10.07;;
78197;SDS011;67472;51.554;7.812;2024-03-22T07:08:06;17.00;;;11.27;;
78197;SDS011;67472;51.554;7.812;2024-03-22T07:10:53;15.88;;;10.23;;
78197;SDS011;67472;51.554;7.812;2024-03-22T07:13:40;20.70;;;9.27;;
78197;SDS011;67472;51.554;7.812;2024-03-22T07:16:26;18.70;;;10.00;;
78197;SDS011;67472;51.554;7.812;2024-03-22T07:19:11;17.80;;;9.85;;
78197;SDS011;67472;51.554;7.812;2024-03-22T07:21:57;16.08;;;9.65;;
78197;SDS011;67472;51.554;7.812;2024-03-22T07:24:44;14.43;;;9.32;;
78197;SDS011;67472;51.554;7.812;2024-03-22T07:27:30;14.60;;;9.68;;
78197;SDS011;67472;51.554;7.812;2024-03-22T07:30:17;14.13;;;8.93;;
78197;SDS011;67472;51.554;7.812;2024-03-22T07:33:03;16.88;;;10.13;;
78197;SDS011;67472;51.554;7.812;2024-03-22T07:35:49;14.93;;;9.98;;
78197;SDS011;67472;51.554;7.812;2024-03-22T07:38:36;19.40;;;10.07;;
78197;SDS011;67472;51.554;7.812;2024-03-22T07:41:23;16.50;;;10.88;;
78197;SDS011;67472;51.554;7.812;2024-03-22T07:44:09;19.65;;;10.30;;
78197;SDS011;67472;51.554;7.812;2024-03-22T07:46:56;14.50;;;10.20;;
78197;SDS011;67472;51.554;7.812;2024-03-22T07:49:42;17.73;;;10.52;;
78197;SDS011;67472;51.554;7.812;2024-03-22T07:52:28;14.77;;;10.25;;
78197;SDS011;67472;51.554;7.812;2024-03-22T07:55:14;16.50;;;10.30;;
78197;SDS011;67472;51.554;7.812;2024-03-22T07:57:59;18.45;;;10.57;;
78197;SDS011;67472;51.554;7.812;2024-03-22T08:00:45;17.05;;;10.80;;
78197;SDS011;67472;51.554;7.812;2024-03-22T08:03:33;19.80;;;10.50;;
78197;SDS011;67472;51.554;7.812;2024-03-22T08:06:19;15.38;;;10.32;;
78197;SDS011;67472;51.554;7.812;2024-03-22T08:09:04;16.30;;;10.98;;
78197;SDS011;67472;51.554;7.812;2024-03-22T08:11:57;21.42;;;10.07;;
78197;SDS011;67472;51.554;7.812;2024-03-22T08:14:43;17.48;;;11.07;;
78197;SDS011;67472;51.554;7.812;2024-03-22T08:17:30;19.17;;;11.18;;
78197;SDS011;67472;51.554;7.812;2024-03-22T08:20:22;16.05;;;10.98;;
78197;SDS011;67472;51.554;7.812;2024-03-22T08:23:09;23.67;;;12.10;;
78197;SDS011;67472;51.554;7.812;2024-03-22T08:25:55;21.63;;;11.27;;
78197;SDS011;67472;51.554;7.812;2024-03-22T08:28:46;17.45;;;11.35;;
78197;SDS011;67472;51.554;7.812;2024-03-22T08:31:40;15.43;;;10.25;;
78197;SDS011;67472;51.554;7.812;2024-03-22T08:34:35;16.52;;;10.38;;
78197;SDS011;67472;51.554;7.812;2024-03-22T08:37:31;18.63;;;10.07;;
78197;SDS011;67472;51.554;7.812;2024-03-22T08:40:19;18.02;;;10.02;;
78197;SDS011;67472;51.554;7.812;2024-03-22T08:43:05;14.88;;;9.13;;
78197;SDS011;67472;51.554;7.812;2024-03-22T08:45:52;14.10;;;8.95;;
78197;SDS011;67472;51.554;7.812;2024-03-22T08:48:37;14.55;;;9.45;;
78197;SDS011;67472;51.554;7.812;2024-03-22T08:51:24;14.80;;;8.88;;
78197;SDS011;67472;51.554;7.812;2024-03-22T08:54:11;14.48;;;9.90;;
78197;SDS011;67472;51.554;7.812;2024-03-22T08:56:59;18.88;;;9.55;;
78197;SDS011;67472;51.554;7.812;2024-03-22T08:59:44;15.98;;;9.52;;
78197;SDS011;67472;51.554;7.812;2024-03-22T09:02:33;14.70;;;9.68;;
78197;SDS011;67472;51.554;7.812;2024-03-22T09:05:19;13.68;;;9.50;;
78197;SDS011;67472;51.554;7.812;2024-03-22T09:08:05;18.23;;;10.65;;
78197;SDS011;67472;51.554;7.812;2024-03-22T09:10:51;14.48;;;10.05;;
78197;SDS011;67472;51.554;7.812;2024-03-22T09:13:37;19.67;;;10.13;;
78197;SDS011;67472;51.554;7.812;2024-03-22T09:16:23;19.77;;;10.20;;
78197;SDS011;67472;51.554;7.812;2024-03-22T09:19:10;19.02;;;10.95;;
78197;SDS011;67472;51.554;7.812;2024-03-22T09:21:55;25.35;;;11.60;;
78197;SDS011;67472;51.554;7.812;2024-03-22T09:24:42;19.13;;;10.48;;
78197;SDS011;67472;51.554;7.812;2024-03-22T09:27:28;17.40;;;11.65;;
78197;SDS011;67472;51.554;7.812;2024-03-22T09:30:15;17.80;;;11.93;;
78197;SDS011;67472;51.554;7.812;2024-03-22T09:33:00;20.92;;;11.05;;
78197;SDS011;67472;51.554;7.812;2024-03-22T09:35:48;18.83;;;10.63;;
78197;SDS011;67472;51.554;7.812;2024-03-22T09:38:34;16.75;;;9.85;;
78197;SDS011;67472;51.554;7.812;2024-03-22T09:41:20;20.30;;;10.88;;
78197;SDS011;67472;51.554;7.812;2024-03-22T09:44:13;22.10;;;11.35;;
78197;SDS011;67472;51.554;7.812;2024-03-22T09:47:00;19.13;;;11.23;;
78197;SDS011;67472;51.554;7.812;2024-03-22T09:49:45;18.23;;;11.00;;
78197;SDS011;67472;51.554;7.812;2024-03-22T09:52:33;20.80;;;10.98;;
78197;SDS011;67472;51.554;7.812;2024-03-22T09:55:23;16.92;;;10.63;;
78197;SDS011;67472;51.554;7.812;2024-03-22T09:58:10;15.98;;;10.25;;
78197;SDS011;67472;51.554;7.812;2024-03-22T10:00:56;16.05;;;10.57;;
78197;SDS011;67472;51.554;7.812;2024-03-22T10:03:45;15.05;;;10.57;;
78197;SDS011;67472;51.554;7.812;2024-03-22T10:06:31;17.95;;;10.40;;
78197;SDS011;67472;51.554;7.812;2024-03-22T10:09:17;20.35;;;10.00;;
78197;SDS011;67472;51.554;7.812;2024-03-22T10:12:03;17.73;;;11.65;;
78197;SDS011;67472;51.554;7.812;2024-03-22T10:14:50;22.30;;;11.30;;
78197;SDS011;67472;51.554;7.812;2024-03-22T10:17:36;15.85;;;10.02;;
78197;SDS011;67472;51.554;7.812;2024-03-22T10:20:23;16.00;;;11.05;;
78197;SDS011;67472;51.554;7.812;2024-03-22T10:23:12;17.67;;;11.73;;
78197;SDS011;67472;51.554;7.812;2024-03-22T10:25:59;17.58;;;11.52;;
78197;SDS011;67472;51.554;7.812;2024-03-22T10:28:46;13.80;;;10.40;;
78197;SDS011;67472;51.554;7.812;2024-03-22T10:31:31;17.27;;;11.00;;
78197;SDS011;67472;51.554;7.812;2024-03-22T10:34:21;18.58;;;10.85;;
78197;SDS011;67472;51.554;7.812;2024-03-22T10:37:08;16.25;;;9.95;;
78197;SDS011;67472;51.554;7.812;2024-03-22T10:40:07;14.95;;;9.73;;
78197;SDS011;67472;51.554;7.812;2024-03-22T10:42:57;17.90;;;9.80;;
78197;SDS011;67472;51.554;7.812;2024-03-22T10:45:48;15.02;;;9.32;;
78197;SDS011;67472;51.554;7.812;2024-03-22T10:48:44;13.45;;;9.23;;
78197;SDS011;67472;51.554;7.812;2024-03-22T10:51:34;12.23;;;9.40;;
78197;SDS011;67472;51.554;7.812;2024-03-22T10:54:23;14.65;;;9.55;;
78197;SDS011;67472;51.554;7.812;2024-03-22T10:57:13;14.35;;;10.15;;
78197;SDS011;67472;51.554;7.812;2024-03-22T11:00:01;15.18;;;10.23;;
78197;SDS011;67472;51.554;7.812;2024-03-22T11:02:54;15.50;;;10.30;;
78197;SDS011;67472;51.554;7.812;2024-03-22T11:05:46;16.40;;;10.10;;
78197;SDS011;67472;51.554;7.812;2024-03-22T11:08:34;17.95;;;10.43;;
78197;SDS011;67472;51.554;7.812;2024-03-22T11:11:23;16.70;;;9.38;;
78197;SDS011;67472;51.554;7.812;2024-03-22T11:14:09;16.70;;;10.05;;
78197;SDS011;67472;51.554;7.812;2024-03-22T11:16:55;17.17;;;10.38;;
78197;SDS011;67472;51.554;7.812;2024-03-22T11:19:41;14.50;;;10.45;;
78197;SDS011;67472;51.554;7.812;2024-03-22T11:22:28;15.07;;;9.23;;
78197;SDS011;67472;51.554;7.812;2024-03-22T11:25:15;14.05;;;9.93;;
78197;SDS011;67472;51.554;7.812;2024-03-22T11:28:01;15.40;;;10.23;;
78197;SDS011;67472;51.554;7.812;2024-03-22T11:30:46;13.68;;;9.35;;
78197;SDS011;67472;51.554;7.812;2024-03-22T11:33:32;15.65;;;9.38;;
78197;SDS011;67472;51.554;7.812;2024-03-22T11:36:18;17.25;;;9.85;;
78197;SDS011;67472;51.554;7.812;2024-03-22T11:39:04;18.35;;;10.93;;
78197;SDS011;67472;51.554;7.812;2024-03-22T11:41:52;16.20;;;9.30;;
78197;SDS011;67472;51.554;7.812;2024-03-22T11:44:37;15.98;;;9.30;;
78197;SDS011;67472;51.554;7.812;2024-03-22T11:47:25;15.60;;;8.93;;
78197;SDS011;67472;51.554;7.812;2024-03-22T11:50:10;15.18;;;9.48;;
78197;SDS011;67472;51.554;7.812;2024-03-22T11:52:58;15.15;;;8.57;;
78197;SDS011;67472;51.554;7.812;2024-03-22T11:55:43;16.35;;;9.93;;
78197;SDS011;67472;51.554;7.812;2024-03-22T11:58:31;15.15;;;8.88;;
78197;SDS011;67472;51.554;7.812;2024-03-22T12:01:16;17.50;;;8.68;;
78197;SDS011;67472;51.554;7.812;2024-03-22T12:04:04;13.70;;;8.50;;
78197;SDS011;67472;51.554;7.812;2024-03-22T12:06:52;15.50;;;9.20;;
78197;SDS011;67472;51.554;7.812;2024-03-22T12:09:42;12.63;;;8.63;;
78197;SDS011;67472;51.554;7.812;2024-03-22T12:12:28;13.82;;;8.15;;
78197;SDS011;67472;51.554;7.812;2024-03-22T12:15:17;15.15;;;9.13;;
78197;SDS011;67472;51.554;7.812;2024-03-22T12:18:02;14.35;;;8.05;;
78197;SDS011;67472;51.554;7.812;2024-03-22T12:20:48;14.65;;;8.45;;
78197;SDS011;67472;51.554;7.812;2024-03-22T12:23:33;12.40;;;8.02;;
78197;SDS011;67472;51.554;7.812;2024-03-22T12:26:20;13.95;;;8.18;;
78197;SDS011;67472;51.554;7.812;2024-03-22T12:29:07;15.88;;;9.13;;
78197;SDS011;67472;51.554;7.812;2024-03-22T12:31:56;13.43;;;8.32;;
78197;SDS011;67472;51.554;7.812;2024-03-22T12:34:41;19.02;;;8.32;;
78197;SDS011;67472;51.554;7.812;2024-03-22T12:37:30;12.35;;;7.82;;
78197;SDS011;67472;51.554;7.812;2024-03-22T12:40:19;18.70;;;8.30;;
78197;SDS011;67472;51.554;7.812;2024-03-22T12:43:09;13.50;;;8.27;;
78197;SDS011;67472;51.554;7.812;2024-03-22T12:45:55;12.43;;;7.82;;
78197;SDS011;67472;51.554;7.812;2024-03-22T12:48:44;12.20;;;8.07;;
78197;SDS011;67472;51.554;7.812;2024-03-22T12:51:33;12.85;;;8.27;;
78197;SDS011;67472;51.554;7.812;2024-03-22T12:54:23;16.70;;;8.77;;
78197;SDS011;67472;51.554;7.812;2024-03-22T12:57:10;12.65;;;8.60;;
78197;SDS011;67472;51.554;7.812;2024-03-22T12:59:57;14.95;;;9.45;;
78197;SDS011;67472;51.554;7.812;2024-03-22T13:02:42;13.90;;;10.30;;
78197;SDS011;67472;51.554;7.812;2024-03-22T13:05:30;14.00;;;10.55;;
78197;SDS011;67472;51.554;7.812;2024-03-22T13:08:16;14.13;;;9.80;;
78197;SDS011;67472;51.554;7.812;2024-03-22T13:11:03;17.33;;;10.77;;
78197;SDS011;67472;51.554;7.812;2024-03-22T13:13:49;16.23;;;10.60;;
78197;SDS011;67472;51.554;7.812;2024-03-22T13:16:35;17.50;;;11.05;;
78197;SDS011;67472;51.554;7.812;2024-03-22T13:19:20;15.85;;;10.75;;
78197;SDS011;67472;51.554;7.812;2024-03-22T13:22:08;16.17;;;11.38;;
78197;SDS011;67472;51.554;7.812;2024-03-22T13:24:53;16.35;;;11.10;;
78197;SDS011;67472;51.554;7.812;2024-03-22T13:27:40;16.88;;;11.18;;
78197;SDS011;67472;51.554;7.812;2024-03-22T13:30:26;18.08;;;10.85;;
78197;SDS011;67472;51.554;7.812;2024-03-22T13:33:13;20.73;;;11.00;;
78197;SDS011;67472;51.554;7.812;2024-03-22T13:35:58;19.30;;;11.57;;
78197;SDS011;67472;51.554;7.812;2024-03-22T13:38:45;16.55;;;11.35;;
78197;SDS011;67472;51.554;7.812;2024-03-22T13:41:31;20.17;;;11.77;;
78197;SDS011;67472;51.554;7.812;2024-03-22T13:44:17;17.75;;;11.52;;
78197;SDS011;67472;51.554;7.812;2024-03-22T13:47:03;25.38;;;13.35;;
78197;SDS011;67472;51.554;7.812;2024-03-22T13:49:49;23.45;;;13.95;;
78197;SDS011;67472;51.554;7.812;2024-03-22T13:52:34;17.98;;;13.57;;
78197;SDS011;67472;51.554;7.812;2024-03-22T13:55:25;19.17;;;14.10;;
78197;SDS011;67472;51.554;7.812;2024-03-22T13:58:13;21.90;;;14.05;;
78197;SDS011;67472;51.554;7.812;2024-03-22T14:00:59;25.27;;;14.32;;
78197;SDS011;67472;51.554;7.812;2024-03-22T14:03:55;22.75;;;12.60;;
78197;SDS011;67472;51.554;7.812;2024-03-22T14:06:43;17.55;;;12.30;;
78197;SDS011;67472;51.554;7.812;2024-03-22T14:09:33;23.17;;;13.52;;
78197;SDS011;67472;51.554;7.812;2024-03-22T14:12:21;20.08;;;13.40;;
78197;SDS011;67472;51.554;7.812;2024-03-22T14:15:14;20.15;;;13.98;;
78197;SDS011;67472;51.554;7.812;2024-03-22T14:18:03;18.85;;;13.32;;
78197;SDS011;67472;51.554;7.812;2024-03-22T14:20:48;19.88;;;12.95;;
78197;SDS011;67472;51.554;7.812;2024-03-22T14:23:34;25.85;;;16.00;;
78197;SDS011;67472;51.554;7.812;2024-03-22T14:26:20;19.90;;;14.27;;
78197;SDS011;67472;51.554;7.812;2024-03-22T14:29:09;23.67;;;14.80;;
78197;SDS011;67472;51.554;7.812;2024-03-22T14:31:54;22.20;;;14.57;;
78197;SDS011;67472;51.554;7.812;2024-03-22T14:34:41;22.65;;;15.90;;
78197;SDS011;67472;51.554;7.812;2024-03-22T14:37:26;22.30;;;16.23;;
78197;SDS011;67472;51.554;7.812;2024-03-22T14:40:12;24.77;;;15.85;;
78197;SDS011;67472;51.554;7.812;2024-03-22T14:42:59;21.67;;;16.80;;
78197;SDS011;67472;51.554;7.812;2024-03-22T14:45:57;27.70;;;17.73;;
78197;SDS011;67472;51.554;7.812;2024-03-22T14:48:43;25.63;;;17.25;;
78197;SDS011;67472;51.554;7.812;2024-03-22T14:51:32;23.77;;;17.48;;
78197;SDS011;67472;51.554;7.812;2024-03-22T14:54:19;27.83;;;19.88;;
78197;SDS011;67472;51.554;7.812;2024-03-22T14:57:08;28.45;;;20.48;;
78197;SDS011;67472;51.554;7.812;2024-03-22T14:59:55;34.45;;;23.60;;
78197;SDS011;67472;51.554;7.812;2024-03-22T15:02:43;33.70;;;23.67;;
78197;SDS011;67472;51.554;7.812;2024-03-22T15:05:34;39.75;;;25.75;;
78197;SDS011;67472;51.554;7.812;2024-03-22T15:08:23;41.63;;;26.70;;
78197;SDS011;67472;51.554;7.812;2024-03-22T15:11:08;41.55;;;27.63;;
78197;SDS011;67472;51.554;7.812;2024-03-22T15:13:54;47.13;;;30.67;;
78197;SDS011;67472;51.554;7.812;2024-03-22T15:16:39;50.72;;;30.90;;
78197;SDS011;67472;51.554;7.812;2024-03-22T15:19:28;54.88;;;32.28;;
78197;SDS011;67472;51.554;7.812;2024-03-22T15:22:14;49.08;;;31.02;;
78197;SDS011;67472;51.554;7.812;2024-03-22T15:25:02;52.97;;;30.85;;
78197;SDS011;67472;51.554;7.812;2024-03-22T15:27:50;53.58;;;31.23;;
78197;SDS011;67472;51.554;7.812;2024-03-22T15:30:36;52.65;;;31.02;;
78197;SDS011;67472;51.554;7.812;2024-03-22T15:33:23;53.00;;;31.30;;
78197;SDS011;67472;51.554;7.812;2024-03-22T15:36:09;54.92;;;32.72;;
78197;SDS011;67472;51.554;7.812;2024-03-22T15:38:55;56.70;;;33.78;;
78197;SDS011;67472;51.554;7.812;2024-03-22T15:41:47;55.88;;;32.83;;
78197;SDS011;67472;51.554;7.812;2024-03-22T15:44:52;54.10;;;32.30;;
78197;SDS011;67472;51.554;7.812;2024-03-22T15:47:39;62.75;;;36.25;;
78197;SDS011;67472;51.554;7.812;2024-03-22T15:50:37;63.22;;;37.63;;
78197;SDS011;67472;51.554;7.812;2024-03-22T15:53:26;65.72;;;38.20;;
78197;SDS011;67472;51.554;7.812;2024-03-22T15:56:16;67.07;;;37.75;;
78197;SDS011;67472;51.554;7.812;2024-03-22T15:59:02;70.05;;;42.10;;
78197;SDS011;67472;51.554;7.812;2024-03-22T16:01:49;74.60;;;42.75;;
78197;SDS011;67472;51.554;7.812;2024-03-22T16:04:34;70.32;;;41.03;;
78197;SDS011;67472;51.554;7.812;2024-03-22T16:07:22;66.35;;;41.10;;
78197;SDS011;67472;51.554;7.812;2024-03-22T16:10:10;67.90;;;39.17;;
78197;SDS011;67472;51.554;7.812;2024-03-22T16:12:56;73.88;;;41.15;;
78197;SDS011;67472;51.554;7.812;2024-03-22T16:15:44;69.07;;;39.88;;
78197;SDS011;67472;51.554;7.812;2024-03-22T16:18:30;61.75;;;37.25;;
78197;SDS011;67472;51.554;7.812;2024-03-22T16:21:18;60.63;;;37.42;;
78197;SDS011;67472;51.554;7.812;2024-03-22T16:24:03;62.00;;;37.83;;
78197;SDS011;67472;51.554;7.812;2024-03-22T16:26:51;63.38;;;38.38;;